sensor_id;sensor_type;location;lat;lon;timestamp;P1;durP1;ratioP1;P2;durP2;ratioP2
38435;SDS011;24220;48.168;14.024;2023-03-11T00:02:28;1.08;;;0.95;;
38435;SDS011;24220;48.168;14.024;2023-03-11T00:05:02;1.23;;;1.17;;
38435;SDS011;24220;48.168;14.024;2023-03-11T00:07:36;2.10;;;1.20;;
38435;SDS011;24220;48.168;14.024;2023-03-11T00:10:11;1.38;;;1.27;;
38435;SDS011;24220;48.168;14.024;2023-03-11T00:12:47;1.77;;;1.10;;
38435;SDS011;24220;48.168;14.024;2023-03-11T00:15:21;1.05;;;1.05;;
38435;SDS011;24220;48.168;14.024;2023-03-11T00:17:51;2.50;;;1.30;;
38435;SDS011;24220;48.168;14.024;2023-03-11T00:20:26;1.02;;;1.02;;
38435;SDS011;24220;48.168;14.024;2023-03-11T00:23:04;1.20;;;1.10;;
38435;SDS011;24220;48.168;14.024;2023-03-11T00:25:33;1.65;;;1.30;;
38435;SDS011;24220;48.168;14.024;2023-03-11T00:28:05;0.98;;;0.98;;
38435;SDS011;24220;48.168;14.024;2023-03-11T00:30:42;2.30;;;1.20;;
38435;SDS011;24220;48.168;14.024;2023-03-11T00:33:18;1.13;;;1.00;;
38435;SDS011;24220;48.168;14.024;2023-03-11T00:35:52;1.00;;;1.00;;
38435;SDS011;24220;48.168;14.024;2023-03-11T00:38:20;1.77;;;1.13;;
38435;SDS011;24220;48.168;14.024;2023-03-11T00:40:47;0.80;;;0.80;;
38435;SDS011;24220;48.168;14.024;2023-03-11T00:43:17;1.63;;;1.20;;
38435;SDS011;24220;48.168;14.024;2023-03-11T00:45:47;1.10;;;1.10;;
38435;SDS011;24220;48.168;14.024;2023-03-11T00:48:18;1.13;;;1.00;;
38435;SDS011;24220;48.168;14.024;2023-03-11T00:50:46;1.20;;;1.10;;
38435;SDS011;24220;48.168;14.024;2023-03-11T00:53:16;1.00;;;0.95;;
38435;SDS011;24220;48.168;14.024;2023-03-11T00:55:43;1.00;;;1.00;;
38435;SDS011;24220;48.168;14.024;2023-03-11T00:58:11;0.90;;;0.90;;
38435;SDS011;24220;48.168;14.024;2023-03-11T01:00:41;0.93;;;0.93;;
38435;SDS011;24220;48.168;14.024;2023-03-11T01:03:12;1.10;;;1.10;;
38435;SDS011;24220;48.168;14.024;2023-03-11T01:05:42;1.00;;;1.00;;
38435;SDS011;24220;48.168;14.024;2023-03-11T01:08:09;1.30;;;1.20;;
38435;SDS011;24220;48.168;14.024;2023-03-11T01:10:39;1.17;;;1.00;;
38435;SDS011;24220;48.168;14.024;2023-03-11T01:13:07;0.90;;;0.90;;
38435;SDS011;24220;48.168;14.024;2023-03-11T01:15:35;1.40;;;1.30;;
38435;SDS011;24220;48.168;14.024;2023-03-11T01:18:05;2.13;;;1.20;;
38435;SDS011;24220;48.168;14.024;2023-03-11T01:20:33;1.80;;;1.52;;
38435;SDS011;24220;48.168;14.024;2023-03-11T01:23:04;2.47;;;1.30;;
38435;SDS011;24220;48.168;14.024;2023-03-11T01:25:32;2.40;;;1.10;;
38435;SDS011;24220;48.168;14.024;2023-03-11T01:28:01;1.30;;;1.20;;
38435;SDS011;24220;48.168;14.024;2023-03-11T01:30:28;1.60;;;1.50;;
38435;SDS011;24220;48.168;14.024;2023-03-11T01:32:56;1.48;;;1.38;;
38435;SDS011;24220;48.168;14.024;2023-03-11T01:35:27;1.50;;;1.40;;
38435;SDS011;24220;48.168;14.024;2023-03-11T01:37:59;1.40;;;1.30;;
38435;SDS011;24220;48.168;14.024;2023-03-11T01:40:32;1.42;;;1.30;;
38435;SDS011;24220;48.168;14.024;2023-03-11T01:48:50;1.40;;;1.30;;
38435;SDS011;24220;48.168;14.024;2023-03-11T01:53:59;1.60;;;1.50;;
38435;SDS011;24220;48.168;14.024;2023-03-11T01:56:40;1.63;;;1.40;;
38435;SDS011;24220;48.168;14.024;2023-03-11T01:59:15;1.30;;;1.25;;
38435;SDS011;24220;48.168;14.024;2023-03-11T02:01:52;1.10;;;1.10;;
38435;SDS011;24220;48.168;14.024;2023-03-11T02:04:33;2.15;;;1.27;;
38435;SDS011;24220;48.168;14.024;2023-03-11T02:07:03;1.35;;;1.27;;
38435;SDS011;24220;48.168;14.024;2023-03-11T02:09:39;1.08;;;1.08;;
38435;SDS011;24220;48.168;14.024;2023-03-11T02:12:13;1.08;;;1.08;;
38435;SDS011;24220;48.168;14.024;2023-03-11T02:14:46;1.40;;;1.17;;
38435;SDS011;24220;48.168;14.024;2023-03-11T02:17:23;1.30;;;1.20;;
38435;SDS011;24220;48.168;14.024;2023-03-11T02:22:42;1.15;;;1.05;;
38435;SDS011;24220;48.168;14.024;2023-03-11T02:25:36;1.15;;;1.00;;
38435;SDS011;24220;48.168;14.024;2023-03-11T02:28:32;0.98;;;0.90;;
38435;SDS011;24220;48.168;14.024;2023-03-11T02:31:07;1.00;;;1.00;;
38435;SDS011;24220;48.168;14.024;2023-03-11T02:34:01;1.20;;;1.00;;
38435;SDS011;24220;48.168;14.024;2023-03-11T02:36:36;1.05;;;1.00;;
38435;SDS011;24220;48.168;14.024;2023-03-11T02:39:15;2.10;;;0.90;;
38435;SDS011;24220;48.168;14.024;2023-03-11T02:41:52;1.10;;;1.00;;
38435;SDS011;24220;48.168;14.024;2023-03-11T02:44:34;1.10;;;1.10;;
38435;SDS011;24220;48.168;14.024;2023-03-11T02:47:06;1.13;;;1.00;;
38435;SDS011;24220;48.168;14.024;2023-03-11T02:49:43;0.98;;;0.98;;
38435;SDS011;24220;48.168;14.024;2023-03-11T02:52:26;0.90;;;0.90;;
38435;SDS011;24220;48.168;14.024;2023-03-11T02:55:03;1.10;;;1.00;;
38435;SDS011;24220;48.168;14.024;2023-03-11T02:57:36;1.30;;;1.17;;
38435;SDS011;24220;48.168;14.024;2023-03-11T03:00:06;5.22;;;1.02;;
38435;SDS011;24220;48.168;14.024;2023-03-11T03:02:47;1.08;;;0.98;;
38435;SDS011;24220;48.168;14.024;2023-03-11T03:05:21;1.05;;;1.00;;
38435;SDS011;24220;48.168;14.024;2023-03-11T03:07:57;1.00;;;1.00;;
38435;SDS011;24220;48.168;14.024;2023-03-11T03:10:33;1.30;;;1.10;;
38435;SDS011;24220;48.168;14.024;2023-03-11T03:13:17;0.90;;;0.90;;
38435;SDS011;24220;48.168;14.024;2023-03-11T03:15:51;1.77;;;0.88;;
38435;SDS011;24220;48.168;14.024;2023-03-11T03:20:56;1.00;;;1.00;;
38435;SDS011;24220;48.168;14.024;2023-03-11T03:23:23;1.20;;;1.10;;
38435;SDS011;24220;48.168;14.024;2023-03-11T03:25:52;0.82;;;0.80;;
38435;SDS011;24220;48.168;14.024;2023-03-11T03:28:29;2.08;;;1.10;;
38435;SDS011;24220;48.168;14.024;2023-03-11T03:31:06;0.93;;;0.93;;
38435;SDS011;24220;48.168;14.024;2023-03-11T03:33:44;1.25;;;0.98;;
38435;SDS011;24220;48.168;14.024;2023-03-11T03:36:21;1.23;;;0.90;;
38435;SDS011;24220;48.168;14.024;2023-03-11T03:38:55;1.73;;;0.90;;
38435;SDS011;24220;48.168;14.024;2023-03-11T03:41:30;0.90;;;0.90;;
38435;SDS011;24220;48.168;14.024;2023-03-11T03:44:04;1.10;;;1.00;;
38435;SDS011;24220;48.168;14.024;2023-03-11T03:46:39;1.42;;;1.10;;
38435;SDS011;24220;48.168;14.024;2023-03-11T03:49:07;1.10;;;1.00;;
38435;SDS011;24220;48.168;14.024;2023-03-11T03:51:42;1.00;;;1.00;;
38435;SDS011;24220;48.168;14.024;2023-03-11T03:54:11;1.25;;;1.08;;
38435;SDS011;24220;48.168;14.024;2023-03-11T03:56:47;1.80;;;0.80;;
38435;SDS011;24220;48.168;14.024;2023-03-11T03:59:18;1.13;;;1.05;;
38435;SDS011;24220;48.168;14.024;2023-03-11T04:01:56;1.10;;;1.00;;
38435;SDS011;24220;48.168;14.024;2023-03-11T04:04:26;1.10;;;1.10;;
38435;SDS011;24220;48.168;14.024;2023-03-11T04:06:55;1.00;;;1.00;;
38435;SDS011;24220;48.168;14.024;2023-03-11T04:09:25;0.98;;;0.98;;
38435;SDS011;24220;48.168;14.024;2023-03-11T04:11:56;1.20;;;1.10;;
38435;SDS011;24220;48.168;14.024;2023-03-11T04:14:33;1.40;;;1.30;;
38435;SDS011;24220;48.168;14.024;2023-03-11T04:17:01;1.30;;;1.20;;
38435;SDS011;24220;48.168;14.024;2023-03-11T04:19:34;1.65;;;1.55;;
38435;SDS011;24220;48.168;14.024;2023-03-11T04:22:08;1.40;;;1.30;;
38435;SDS011;24220;48.168;14.024;2023-03-11T04:24:39;1.40;;;1.30;;
38435;SDS011;24220;48.168;14.024;2023-03-11T04:27:10;1.40;;;1.30;;
38435;SDS011;24220;48.168;14.024;2023-03-11T04:29:42;1.50;;;1.38;;
38435;SDS011;24220;48.168;14.024;2023-03-11T04:32:16;1.45;;;1.23;;
38435;SDS011;24220;48.168;14.024;2023-03-11T04:34:56;1.50;;;1.40;;
38435;SDS011;24220;48.168;14.024;2023-03-11T04:37:34;1.45;;;1.30;;
38435;SDS011;24220;48.168;14.024;2023-03-11T04:40:08;1.50;;;1.40;;
38435;SDS011;24220;48.168;14.024;2023-03-11T04:42:40;1.65;;;1.20;;
38435;SDS011;24220;48.168;14.024;2023-03-11T04:45:10;2.20;;;2.00;;
38435;SDS011;24220;48.168;14.024;2023-03-11T04:47:41;2.05;;;1.85;;
38435;SDS011;24220;48.168;14.024;2023-03-11T04:50:11;1.83;;;1.60;;
38435;SDS011;24220;48.168;14.024;2023-03-11T04:52:40;2.65;;;1.20;;
38435;SDS011;24220;48.168;14.024;2023-03-11T04:55:08;1.40;;;1.30;;
38435;SDS011;24220;48.168;14.024;2023-03-11T04:57:45;1.52;;;1.42;;
38435;SDS011;24220;48.168;14.024;2023-03-11T05:00:38;2.83;;;1.40;;
38435;SDS011;24220;48.168;14.024;2023-03-11T05:03:17;1.60;;;1.40;;
38435;SDS011;24220;48.168;14.024;2023-03-11T05:05:47;1.50;;;1.40;;
38435;SDS011;24220;48.168;14.024;2023-03-11T05:08:23;1.20;;;1.15;;
38435;SDS011;24220;48.168;14.024;2023-03-11T05:10:58;1.80;;;1.70;;
38435;SDS011;24220;48.168;14.024;2023-03-11T05:13:31;1.65;;;1.55;;
38435;SDS011;24220;48.168;14.024;2023-03-11T05:16:03;1.45;;;1.35;;
38435;SDS011;24220;48.168;14.024;2023-03-11T05:18:31;1.13;;;1.10;;
38435;SDS011;24220;48.168;14.024;2023-03-11T05:21:08;1.45;;;1.35;;
38435;SDS011;24220;48.168;14.024;2023-03-11T05:23:39;1.35;;;1.23;;
38435;SDS011;24220;48.168;14.024;2023-03-11T05:26:13;2.10;;;1.70;;
38435;SDS011;24220;48.168;14.024;2023-03-11T05:28:49;1.58;;;1.30;;
38435;SDS011;24220;48.168;14.024;2023-03-11T05:31:18;2.00;;;1.80;;
38435;SDS011;24220;48.168;14.024;2023-03-11T05:33:46;4.40;;;2.38;;
38435;SDS011;24220;48.168;14.024;2023-03-11T05:36:15;3.47;;;2.60;;
38435;SDS011;24220;48.168;14.024;2023-03-11T05:38:44;2.25;;;1.85;;
38435;SDS011;24220;48.168;14.024;2023-03-11T05:41:11;1.88;;;1.67;;
38435;SDS011;24220;48.168;14.024;2023-03-11T05:43:44;1.80;;;1.70;;
38435;SDS011;24220;48.168;14.024;2023-03-11T05:46:23;1.60;;;1.50;;
38435;SDS011;24220;48.168;14.024;2023-03-11T05:48:50;2.97;;;1.60;;
38435;SDS011;24220;48.168;14.024;2023-03-11T05:51:18;1.88;;;1.33;;
38435;SDS011;24220;48.168;14.024;2023-03-11T05:53:50;1.33;;;1.17;;
38435;SDS011;24220;48.168;14.024;2023-03-11T05:56:24;1.40;;;1.30;;
38435;SDS011;24220;48.168;14.024;2023-03-11T05:58:55;1.05;;;1.05;;
38435;SDS011;24220;48.168;14.024;2023-03-11T06:01:24;1.10;;;1.10;;
38435;SDS011;24220;48.168;14.024;2023-03-11T06:03:54;1.80;;;1.17;;
38435;SDS011;24220;48.168;14.024;2023-03-11T06:06:23;1.30;;;1.20;;
38435;SDS011;24220;48.168;14.024;2023-03-11T06:08:54;1.70;;;1.50;;
38435;SDS011;24220;48.168;14.024;2023-03-11T06:11:24;1.40;;;1.30;;
38435;SDS011;24220;48.168;14.024;2023-03-11T06:13:58;1.25;;;1.15;;
38435;SDS011;24220;48.168;14.024;2023-03-11T06:16:35;1.92;;;1.20;;
38435;SDS011;24220;48.168;14.024;2023-03-11T06:19:06;1.40;;;1.30;;
38435;SDS011;24220;48.168;14.024;2023-03-11T06:21:34;0.93;;;0.93;;
38435;SDS011;24220;48.168;14.024;2023-03-11T06:24:02;1.42;;;1.25;;
38435;SDS011;24220;48.168;14.024;2023-03-11T06:26:33;1.50;;;1.40;;
38435;SDS011;24220;48.168;14.024;2023-03-11T06:29:03;1.45;;;1.30;;
38435;SDS011;24220;48.168;14.024;2023-03-11T06:31:31;1.27;;;1.17;;
38435;SDS011;24220;48.168;14.024;2023-03-11T06:34:03;1.27;;;1.17;;
38435;SDS011;24220;48.168;14.024;2023-03-11T06:36:36;1.20;;;1.10;;
38435;SDS011;24220;48.168;14.024;2023-03-11T06:39:07;1.45;;;1.20;;
38435;SDS011;24220;48.168;14.024;2023-03-11T06:44:10;1.67;;;1.10;;
38435;SDS011;24220;48.168;14.024;2023-03-11T06:46:42;1.30;;;1.20;;
38435;SDS011;24220;48.168;14.024;2023-03-11T06:49:15;1.88;;;1.10;;
38435;SDS011;24220;48.168;14.024;2023-03-11T06:51:55;1.42;;;1.30;;
38435;SDS011;24220;48.168;14.024;2023-03-11T06:54:30;1.38;;;1.20;;
38435;SDS011;24220;48.168;14.024;2023-03-11T06:57:07;1.27;;;1.17;;
38435;SDS011;24220;48.168;14.024;2023-03-11T06:59:36;1.27;;;1.05;;
38435;SDS011;24220;48.168;14.024;2023-03-11T07:02:13;2.38;;;1.85;;
38435;SDS011;24220;48.168;14.024;2023-03-11T07:04:52;1.30;;;1.20;;
38435;SDS011;24220;48.168;14.024;2023-03-11T07:07:20;0.93;;;0.90;;
38435;SDS011;24220;48.168;14.024;2023-03-11T07:09:47;1.38;;;1.13;;
38435;SDS011;24220;48.168;14.024;2023-03-11T07:12:15;1.40;;;1.30;;
38435;SDS011;24220;48.168;14.024;2023-03-11T07:14:48;1.10;;;1.05;;
38435;SDS011;24220;48.168;14.024;2023-03-11T07:17:20;1.42;;;1.20;;
38435;SDS011;24220;48.168;14.024;2023-03-11T07:19:47;1.23;;;1.02;;
38435;SDS011;24220;48.168;14.024;2023-03-11T07:22:24;1.23;;;1.08;;
38435;SDS011;24220;48.168;14.024;2023-03-11T07:24:51;1.30;;;1.00;;
38435;SDS011;24220;48.168;14.024;2023-03-11T07:27:20;1.10;;;0.93;;
38435;SDS011;24220;48.168;14.024;2023-03-11T07:29:50;1.45;;;1.10;;
38435;SDS011;24220;48.168;14.024;2023-03-11T07:32:24;1.27;;;1.17;;
38435;SDS011;24220;48.168;14.024;2023-03-11T07:34:54;1.33;;;1.13;;
38435;SDS011;24220;48.168;14.024;2023-03-11T07:37:25;1.67;;;1.52;;
38435;SDS011;24220;48.168;14.024;2023-03-11T07:39:52;0.90;;;0.90;;
38435;SDS011;24220;48.168;14.024;2023-03-11T07:42:26;1.00;;;0.90;;
38435;SDS011;24220;48.168;14.024;2023-03-11T07:44:53;1.13;;;0.90;;
38435;SDS011;24220;48.168;14.024;2023-03-11T07:47:20;1.05;;;0.93;;
38435;SDS011;24220;48.168;14.024;2023-03-11T07:49:48;1.92;;;1.00;;
38435;SDS011;24220;48.168;14.024;2023-03-11T07:52:28;0.82;;;0.80;;
38435;SDS011;24220;48.168;14.024;2023-03-11T07:54:58;1.33;;;1.17;;
38435;SDS011;24220;48.168;14.024;2023-03-11T07:57:29;0.80;;;0.80;;
38435;SDS011;24220;48.168;14.024;2023-03-11T07:59:59;0.90;;;0.77;;
38435;SDS011;24220;48.168;14.024;2023-03-11T08:02:37;0.90;;;0.90;;
38435;SDS011;24220;48.168;14.024;2023-03-11T08:05:16;0.80;;;0.80;;
38435;SDS011;24220;48.168;14.024;2023-03-11T08:07:52;0.98;;;0.85;;
38435;SDS011;24220;48.168;14.024;2023-03-11T08:10:26;0.70;;;0.70;;
38435;SDS011;24220;48.168;14.024;2023-03-11T08:12:54;1.00;;;0.90;;
38435;SDS011;24220;48.168;14.024;2023-03-11T08:15:28;0.70;;;0.70;;
38435;SDS011;24220;48.168;14.024;2023-03-11T08:17:56;0.90;;;0.70;;
38435;SDS011;24220;48.168;14.024;2023-03-11T08:20:25;1.30;;;0.50;;
38435;SDS011;24220;48.168;14.024;2023-03-11T08:22:55;1.20;;;0.80;;
38435;SDS011;24220;48.168;14.024;2023-03-11T08:25:24;0.77;;;0.70;;
38435;SDS011;24220;48.168;14.024;2023-03-11T08:27:52;1.10;;;0.80;;
38435;SDS011;24220;48.168;14.024;2023-03-11T08:30:19;0.50;;;0.50;;
38435;SDS011;24220;48.168;14.024;2023-03-11T08:32:55;0.63;;;0.63;;
38435;SDS011;24220;48.168;14.024;2023-03-11T08:35:32;0.98;;;0.70;;
38435;SDS011;24220;48.168;14.024;2023-03-11T08:38:03;0.75;;;0.55;;
38435;SDS011;24220;48.168;14.024;2023-03-11T08:40:33;1.15;;;0.80;;
38435;SDS011;24220;48.168;14.024;2023-03-11T08:43:03;1.67;;;0.80;;
38435;SDS011;24220;48.168;14.024;2023-03-11T08:45:30;0.85;;;0.85;;
38435;SDS011;24220;48.168;14.024;2023-03-11T08:47:58;1.00;;;0.95;;
38435;SDS011;24220;48.168;14.024;2023-03-11T08:50:33;1.13;;;0.73;;
38435;SDS011;24220;48.168;14.024;2023-03-11T08:53:20;1.00;;;0.90;;
38435;SDS011;24220;48.168;14.024;2023-03-11T08:55:51;5.28;;;1.15;;
38435;SDS011;24220;48.168;14.024;2023-03-11T08:58:19;1.55;;;1.17;;
38435;SDS011;24220;48.168;14.024;2023-03-11T09:00:53;1.08;;;0.98;;
38435;SDS011;24220;48.168;14.024;2023-03-11T09:03:23;1.80;;;1.13;;
38435;SDS011;24220;48.168;14.024;2023-03-11T09:06:00;1.35;;;1.10;;
38435;SDS011;24220;48.168;14.024;2023-03-11T09:08:38;2.97;;;1.60;;
38435;SDS011;24220;48.168;14.024;2023-03-11T09:11:09;3.13;;;1.90;;
38435;SDS011;24220;48.168;14.024;2023-03-11T09:13:39;1.52;;;1.10;;
38435;SDS011;24220;48.168;14.024;2023-03-11T09:16:16;0.90;;;0.90;;
38435;SDS011;24220;48.168;14.024;2023-03-11T09:18:53;1.02;;;1.02;;
38435;SDS011;24220;48.168;14.024;2023-03-11T09:21:22;1.27;;;1.17;;
38435;SDS011;24220;48.168;14.024;2023-03-11T09:23:49;0.90;;;0.90;;
38435;SDS011;24220;48.168;14.024;2023-03-11T09:26:17;1.17;;;0.90;;
38435;SDS011;24220;48.168;14.024;2023-03-11T09:28:49;3.42;;;1.20;;
38435;SDS011;24220;48.168;14.024;2023-03-11T09:31:27;1.27;;;1.00;;
38435;SDS011;24220;48.168;14.024;2023-03-11T09:34:02;1.10;;;1.00;;
38435;SDS011;24220;48.168;14.024;2023-03-11T09:36:29;1.90;;;0.95;;
38435;SDS011;24220;48.168;14.024;2023-03-11T09:38:57;2.08;;;0.90;;
38435;SDS011;24220;48.168;14.024;2023-03-11T09:50:19;2.67;;;1.00;;
38435;SDS011;24220;48.168;14.024;2023-03-11T09:55:57;1.25;;;1.10;;
38435;SDS011;24220;48.168;14.024;2023-03-11T09:58:30;1.40;;;1.30;;
38435;SDS011;24220;48.168;14.024;2023-03-11T10:04:12;1.17;;;1.08;;
38435;SDS011;24220;48.168;14.024;2023-03-11T10:06:46;1.10;;;1.00;;
38435;SDS011;24220;48.168;14.024;2023-03-11T10:23:54;1.70;;;1.10;;
38435;SDS011;24220;48.168;14.024;2023-03-11T10:26:32;1.70;;;1.08;;
38435;SDS011;24220;48.168;14.024;2023-03-11T10:29:33;1.63;;;1.10;;
38435;SDS011;24220;48.168;14.024;2023-03-11T10:34:59;1.48;;;0.93;;
38435;SDS011;24220;48.168;14.024;2023-03-11T10:38:02;1.88;;;0.90;;
38435;SDS011;24220;48.168;14.024;2023-03-11T10:40:47;1.02;;;0.90;;
38435;SDS011;24220;48.168;14.024;2023-03-11T10:43:30;0.90;;;0.90;;
38435;SDS011;24220;48.168;14.024;2023-03-11T10:46:19;2.42;;;1.10;;
38435;SDS011;24220;48.168;14.024;2023-03-11T10:48:51;2.17;;;1.70;;
38435;SDS011;24220;48.168;14.024;2023-03-11T10:51:23;1.20;;;1.10;;
38435;SDS011;24220;48.168;14.024;2023-03-11T10:53:59;0.80;;;0.80;;
38435;SDS011;24220;48.168;14.024;2023-03-11T10:56:37;1.25;;;0.90;;
38435;SDS011;24220;48.168;14.024;2023-03-11T11:01:55;2.80;;;1.40;;
38435;SDS011;24220;48.168;14.024;2023-03-11T11:04:27;1.73;;;1.20;;
38435;SDS011;24220;48.168;14.024;2023-03-11T11:10:47;1.88;;;0.90;;
38435;SDS011;24220;48.168;14.024;2023-03-11T11:15:40;1.30;;;1.10;;
38435;SDS011;24220;48.168;14.024;2023-03-11T11:18:22;2.28;;;1.20;;
38435;SDS011;24220;48.168;14.024;2023-03-11T11:26:16;1.15;;;0.82;;
38435;SDS011;24220;48.168;14.024;2023-03-11T11:29:04;1.00;;;0.90;;
38435;SDS011;24220;48.168;14.024;2023-03-11T11:31:47;2.67;;;1.50;;
38435;SDS011;24220;48.168;14.024;2023-03-11T11:34:32;1.30;;;1.15;;
38435;SDS011;24220;48.168;14.024;2023-03-11T11:37:10;2.15;;;1.02;;
38435;SDS011;24220;48.168;14.024;2023-03-11T11:39:51;1.63;;;1.25;;
38435;SDS011;24220;48.168;14.024;2023-03-11T11:42:29;1.30;;;0.98;;
38435;SDS011;24220;48.168;14.024;2023-03-11T11:45:05;1.00;;;1.00;;
38435;SDS011;24220;48.168;14.024;2023-03-11T11:48:04;1.67;;;1.27;;
38435;SDS011;24220;48.168;14.024;2023-03-11T11:50:56;1.45;;;1.10;;
38435;SDS011;24220;48.168;14.024;2023-03-11T11:56:02;1.20;;;1.10;;
38435;SDS011;24220;48.168;14.024;2023-03-11T11:58:32;1.73;;;1.25;;
38435;SDS011;24220;48.168;14.024;2023-03-11T12:09:37;0.85;;;0.80;;
38435;SDS011;24220;48.168;14.024;2023-03-11T12:30:00;2.58;;;1.17;;
38435;SDS011;24220;48.168;14.024;2023-03-11T12:35:25;1.77;;;1.20;;
38435;SDS011;24220;48.168;14.024;2023-03-11T12:46:07;1.40;;;1.30;;
38435;SDS011;24220;48.168;14.024;2023-03-11T12:48:47;1.60;;;1.30;;
38435;SDS011;24220;48.168;14.024;2023-03-11T12:53:57;1.30;;;1.20;;
38435;SDS011;24220;48.168;14.024;2023-03-11T13:04:50;1.63;;;1.20;;
38435;SDS011;24220;48.168;14.024;2023-03-11T13:12:41;1.75;;;1.27;;
38435;SDS011;24220;48.168;14.024;2023-03-11T13:25:41;1.30;;;1.00;;
38435;SDS011;24220;48.168;14.024;2023-03-11T13:31:16;1.40;;;1.30;;
38435;SDS011;24220;48.168;14.024;2023-03-11T13:33:54;2.45;;;1.25;;
38435;SDS011;24220;48.168;14.024;2023-03-11T13:41:51;1.88;;;1.10;;
38435;SDS011;24220;48.168;14.024;2023-03-11T13:44:26;1.52;;;1.40;;
38435;SDS011;24220;48.168;14.024;2023-03-11T13:47:09;2.20;;;1.20;;
38435;SDS011;24220;48.168;14.024;2023-03-11T13:52:45;1.30;;;1.20;;
38435;SDS011;24220;48.168;14.024;2023-03-11T13:57:49;1.55;;;1.45;;
38435;SDS011;24220;48.168;14.024;2023-03-11T14:00:28;1.55;;;1.30;;
38435;SDS011;24220;48.168;14.024;2023-03-11T14:02:57;1.57;;;1.10;;
38435;SDS011;24220;48.168;14.024;2023-03-11T14:05:33;2.08;;;1.23;;
38435;SDS011;24220;48.168;14.024;2023-03-11T14:11:02;1.88;;;1.30;;
38435;SDS011;24220;48.168;14.024;2023-03-11T14:13:44;3.08;;;1.23;;
38435;SDS011;24220;48.168;14.024;2023-03-11T14:16:18;1.85;;;1.20;;
38435;SDS011;24220;48.168;14.024;2023-03-11T14:19:05;1.85;;;1.50;;
38435;SDS011;24220;48.168;14.024;2023-03-11T14:21:41;4.13;;;1.90;;
38435;SDS011;24220;48.168;14.024;2023-03-11T14:24:23;3.42;;;2.30;;
38435;SDS011;24220;48.168;14.024;2023-03-11T14:29:30;2.42;;;1.83;;
38435;SDS011;24220;48.168;14.024;2023-03-11T14:32:14;2.25;;;1.50;;
38435;SDS011;24220;48.168;14.024;2023-03-11T14:34:44;3.00;;;2.00;;
38435;SDS011;24220;48.168;14.024;2023-03-11T14:37:21;2.40;;;1.75;;
38435;SDS011;24220;48.168;14.024;2023-03-11T14:39:57;2.38;;;1.77;;
38435;SDS011;24220;48.168;14.024;2023-03-11T14:45:14;1.98;;;1.23;;
38435;SDS011;24220;48.168;14.024;2023-03-11T14:50:14;1.50;;;1.40;;
38435;SDS011;24220;48.168;14.024;2023-03-11T14:52:51;2.28;;;1.20;;
38435;SDS011;24220;48.168;14.024;2023-03-11T14:55:32;3.10;;;1.33;;
38435;SDS011;24220;48.168;14.024;2023-03-11T14:58:17;1.65;;;1.40;;
38435;SDS011;24220;48.168;14.024;2023-03-11T15:01:38;2.25;;;1.60;;
38435;SDS011;24220;48.168;14.024;2023-03-11T15:04:31;2.22;;;1.20;;
38435;SDS011;24220;48.168;14.024;2023-03-11T15:07:04;2.00;;;1.23;;
38435;SDS011;24220;48.168;14.024;2023-03-11T15:09:36;2.67;;;1.42;;
38435;SDS011;24220;48.168;14.024;2023-03-11T15:12:28;1.98;;;1.33;;
38435;SDS011;24220;48.168;14.024;2023-03-11T15:15:27;1.90;;;1.42;;
38435;SDS011;24220;48.168;14.024;2023-03-11T15:17:58;1.40;;;1.02;;
38435;SDS011;24220;48.168;14.024;2023-03-11T15:23:02;1.90;;;1.30;;
38435;SDS011;24220;48.168;14.024;2023-03-11T15:25:46;1.30;;;1.20;;
38435;SDS011;24220;48.168;14.024;2023-03-11T15:28:22;1.48;;;1.30;;
38435;SDS011;24220;48.168;14.024;2023-03-11T15:34:07;2.28;;;1.38;;
38435;SDS011;24220;48.168;14.024;2023-03-11T15:42:01;2.03;;;1.42;;
38435;SDS011;24220;48.168;14.024;2023-03-11T15:44:47;2.00;;;1.50;;
38435;SDS011;24220;48.168;14.024;2023-03-11T15:47:24;2.63;;;1.70;;
38435;SDS011;24220;48.168;14.024;2023-03-11T15:49:57;3.00;;;1.50;;
38435;SDS011;24220;48.168;14.024;2023-03-11T15:52:52;1.30;;;1.20;;
38435;SDS011;24220;48.168;14.024;2023-03-11T15:55:24;1.77;;;1.20;;
38435;SDS011;24220;48.168;14.024;2023-03-11T15:57:55;1.52;;;1.30;;
38435;SDS011;24220;48.168;14.024;2023-03-11T16:03:05;1.20;;;1.10;;
38435;SDS011;24220;48.168;14.024;2023-03-11T16:05:36;1.40;;;1.30;;
38435;SDS011;24220;48.168;14.024;2023-03-11T16:08:08;2.30;;;1.30;;
38435;SDS011;24220;48.168;14.024;2023-03-11T16:10:45;2.17;;;1.90;;
38435;SDS011;24220;48.168;14.024;2023-03-11T16:13:17;3.05;;;1.30;;
38435;SDS011;24220;48.168;14.024;2023-03-11T16:15:45;2.58;;;1.40;;
38435;SDS011;24220;48.168;14.024;2023-03-11T16:18:16;1.77;;;1.42;;
38435;SDS011;24220;48.168;14.024;2023-03-11T16:20:48;2.07;;;1.40;;
38435;SDS011;24220;48.168;14.024;2023-03-11T16:23:19;3.17;;;1.30;;
38435;SDS011;24220;48.168;14.024;2023-03-11T16:26:16;3.47;;;2.20;;
38435;SDS011;24220;48.168;14.024;2023-03-11T16:28:52;1.98;;;1.40;;
38435;SDS011;24220;48.168;14.024;2023-03-11T16:31:44;3.13;;;1.30;;
38435;SDS011;24220;48.168;14.024;2023-03-11T16:34:19;2.95;;;1.45;;
38435;SDS011;24220;48.168;14.024;2023-03-11T16:36:50;1.65;;;1.40;;
38435;SDS011;24220;48.168;14.024;2023-03-11T16:39:23;2.55;;;1.60;;
38435;SDS011;24220;48.168;14.024;2023-03-11T16:41:55;2.20;;;1.50;;
38435;SDS011;24220;48.168;14.024;2023-03-11T16:44:30;1.83;;;1.42;;
38435;SDS011;24220;48.168;14.024;2023-03-11T16:47:00;1.73;;;1.23;;
38435;SDS011;24220;48.168;14.024;2023-03-11T16:49:29;3.97;;;1.40;;
38435;SDS011;24220;48.168;14.024;2023-03-11T16:52:03;2.53;;;1.60;;
38435;SDS011;24220;48.168;14.024;2023-03-11T16:54:40;2.00;;;1.45;;
38435;SDS011;24220;48.168;14.024;2023-03-11T16:57:12;1.83;;;1.42;;
38435;SDS011;24220;48.168;14.024;2023-03-11T16:59:39;2.20;;;1.40;;
38435;SDS011;24220;48.168;14.024;2023-03-11T17:02:08;2.90;;;1.42;;
38435;SDS011;24220;48.168;14.024;2023-03-11T17:04:40;2.92;;;1.58;;
38435;SDS011;24220;48.168;14.024;2023-03-11T17:07:14;2.58;;;1.80;;
38435;SDS011;24220;48.168;14.024;2023-03-11T17:09:45;1.75;;;1.40;;
38435;SDS011;24220;48.168;14.024;2023-03-11T17:12:21;1.80;;;1.30;;
38435;SDS011;24220;48.168;14.024;2023-03-11T17:14:50;3.00;;;1.70;;
38435;SDS011;24220;48.168;14.024;2023-03-11T17:17:21;2.72;;;1.60;;
38435;SDS011;24220;48.168;14.024;2023-03-11T17:19:49;5.07;;;1.45;;
38435;SDS011;24220;48.168;14.024;2023-03-11T17:22:17;1.50;;;1.40;;
38435;SDS011;24220;48.168;14.024;2023-03-11T17:24:50;1.50;;;1.40;;
38435;SDS011;24220;48.168;14.024;2023-03-11T17:29:53;2.00;;;1.80;;
38435;SDS011;24220;48.168;14.024;2023-03-11T17:32:25;2.22;;;1.75;;
38435;SDS011;24220;48.168;14.024;2023-03-11T17:34:54;2.08;;;1.98;;
38435;SDS011;24220;48.168;14.024;2023-03-11T17:37:23;3.20;;;2.10;;
38435;SDS011;24220;48.168;14.024;2023-03-11T17:39:59;2.45;;;2.22;;
38435;SDS011;24220;48.168;14.024;2023-03-11T17:42:41;2.70;;;2.20;;
38435;SDS011;24220;48.168;14.024;2023-03-11T17:45:20;2.33;;;2.10;;
38435;SDS011;24220;48.168;14.024;2023-03-11T17:47:55;2.65;;;2.35;;
38435;SDS011;24220;48.168;14.024;2023-03-11T17:50:35;2.67;;;2.33;;
38435;SDS011;24220;48.168;14.024;2023-03-11T17:53:08;2.63;;;2.10;;
38435;SDS011;24220;48.168;14.024;2023-03-11T17:55:46;2.72;;;1.83;;
38435;SDS011;24220;48.168;14.024;2023-03-11T17:58:17;3.17;;;2.25;;
38435;SDS011;24220;48.168;14.024;2023-03-11T18:00:45;4.00;;;2.40;;
38435;SDS011;24220;48.168;14.024;2023-03-11T18:03:26;3.47;;;2.42;;
38435;SDS011;24220;48.168;14.024;2023-03-11T18:06:00;2.80;;;2.28;;